sensor_id;sensor_type;location;lat;lon;timestamp;P1;durP1;ratioP1;P2;durP2;ratioP2
47599;SDS011;33323;52.124;6.018;2022-08-19T00:02:01;4.22;;;3.50;;
47599;SDS011;33323;52.124;6.018;2022-08-19T00:04:30;7.70;;;3.33;;
47599;SDS011;33323;52.124;6.018;2022-08-19T00:07:06;4.35;;;3.95;;
47599;SDS011;33323;52.124;6.018;2022-08-19T00:09:33;4.53;;;3.70;;
47599;SDS011;33323;52.124;6.018;2022-08-19T00:12:01;9.02;;;3.35;;
47599;SDS011;33323;52.124;6.018;2022-08-19T00:14:29;3.17;;;2.33;;
47599;SDS011;33323;52.124;6.018;2022-08-19T00:16:57;8.35;;;3.50;;
47599;SDS011;33323;52.124;6.018;2022-08-19T00:19:25;10.02;;;3.83;;
47599;SDS011;33323;52.124;6.018;2022-08-19T00:21:52;5.68;;;2.92;;
47599;SDS011;33323;52.124;6.018;2022-08-19T00:24:19;6.57;;;3.38;;
47599;SDS011;33323;52.124;6.018;2022-08-19T00:26:46;5.15;;;3.60;;
47599;SDS011;33323;52.124;6.018;2022-08-19T00:29:14;8.15;;;3.90;;
47599;SDS011;33323;52.124;6.018;2022-08-19T00:31:44;4.70;;;3.10;;
47599;SDS011;33323;52.124;6.018;2022-08-19T00:34:11;4.03;;;3.63;;
47599;SDS011;33323;52.124;6.018;2022-08-19T00:36:40;4.32;;;3.70;;
47599;SDS011;33323;52.124;6.018;2022-08-19T00:39:09;3.85;;;3.15;;
47599;SDS011;33323;52.124;6.018;2022-08-19T00:41:37;5.57;;;3.47;;
47599;SDS011;33323;52.124;6.018;2022-08-19T00:46:39;6.40;;;3.22;;
47599;SDS011;33323;52.124;6.018;2022-08-19T00:52:29;4.45;;;3.45;;
47599;SDS011;33323;52.124;6.018;2022-08-19T00:55:00;5.10;;;4.55;;
47599;SDS011;33323;52.124;6.018;2022-08-19T00:57:35;8.90;;;4.40;;
47599;SDS011;33323;52.124;6.018;2022-08-19T01:00:11;6.78;;;4.03;;
47599;SDS011;33323;52.124;6.018;2022-08-19T01:02:41;6.68;;;3.60;;
47599;SDS011;33323;52.124;6.018;2022-08-19T01:05:10;7.28;;;3.92;;
47599;SDS011;33323;52.124;6.018;2022-08-19T01:07:41;9.60;;;4.72;;
47599;SDS011;33323;52.124;6.018;2022-08-19T01:10:09;4.70;;;3.70;;
47599;SDS011;33323;52.124;6.018;2022-08-19T01:12:42;7.00;;;3.78;;
47599;SDS011;33323;52.124;6.018;2022-08-19T01:15:11;4.60;;;3.63;;
47599;SDS011;33323;52.124;6.018;2022-08-19T01:17:41;4.22;;;3.80;;
47599;SDS011;33323;52.124;6.018;2022-08-19T01:20:10;12.25;;;4.45;;
47599;SDS011;33323;52.124;6.018;2022-08-19T01:22:48;5.88;;;3.47;;
47599;SDS011;33323;52.124;6.018;2022-08-19T01:25:20;4.82;;;3.80;;
47599;SDS011;33323;52.124;6.018;2022-08-19T01:27:54;5.97;;;3.92;;
47599;SDS011;33323;52.124;6.018;2022-08-19T01:30:28;6.13;;;4.22;;
47599;SDS011;33323;52.124;6.018;2022-08-19T01:33:00;5.22;;;3.85;;
47599;SDS011;33323;52.124;6.018;2022-08-19T01:35:29;7.93;;;4.30;;
47599;SDS011;33323;52.124;6.018;2022-08-19T01:38:05;8.68;;;4.47;;
47599;SDS011;33323;52.124;6.018;2022-08-19T01:40:38;8.05;;;5.13;;
47599;SDS011;33323;52.124;6.018;2022-08-19T01:43:06;7.18;;;4.18;;
47599;SDS011;33323;52.124;6.018;2022-08-19T01:45:33;5.95;;;4.95;;
47599;SDS011;33323;52.124;6.018;2022-08-19T01:48:01;6.40;;;4.68;;
47599;SDS011;33323;52.124;6.018;2022-08-19T01:50:30;5.40;;;4.60;;
47599;SDS011;33323;52.124;6.018;2022-08-19T01:52:58;5.97;;;3.75;;
47599;SDS011;33323;52.124;6.018;2022-08-19T01:55:33;5.22;;;4.15;;
47599;SDS011;33323;52.124;6.018;2022-08-19T01:58:07;10.38;;;5.03;;
47599;SDS011;33323;52.124;6.018;2022-08-19T02:00:42;9.00;;;6.00;;
47599;SDS011;33323;52.124;6.018;2022-08-19T02:03:09;13.40;;;6.07;;
47599;SDS011;33323;52.124;6.018;2022-08-19T02:05:37;7.55;;;5.20;;
47599;SDS011;33323;52.124;6.018;2022-08-19T02:08:05;8.48;;;4.50;;
47599;SDS011;33323;52.124;6.018;2022-08-19T02:10:33;8.68;;;4.53;;
47599;SDS011;33323;52.124;6.018;2022-08-19T02:13:06;4.72;;;4.22;;
47599;SDS011;33323;52.124;6.018;2022-08-19T02:15:33;7.47;;;4.97;;
47599;SDS011;33323;52.124;6.018;2022-08-19T02:18:00;7.70;;;5.10;;
47599;SDS011;33323;52.124;6.018;2022-08-19T02:20:26;6.93;;;5.35;;
47599;SDS011;33323;52.124;6.018;2022-08-19T02:22:53;10.65;;;6.00;;
47599;SDS011;33323;52.124;6.018;2022-08-19T02:25:20;10.32;;;5.45;;
47599;SDS011;33323;52.124;6.018;2022-08-19T02:27:47;6.38;;;5.15;;
47599;SDS011;33323;52.124;6.018;2022-08-19T02:30:15;7.78;;;5.53;;
47599;SDS011;33323;52.124;6.018;2022-08-19T02:32:43;8.10;;;5.07;;
47599;SDS011;33323;52.124;6.018;2022-08-19T02:35:11;8.77;;;5.35;;
47599;SDS011;33323;52.124;6.018;2022-08-19T02:37:40;6.88;;;5.22;;
47599;SDS011;33323;52.124;6.018;2022-08-19T02:40:27;8.52;;;5.57;;
47599;SDS011;33323;52.124;6.018;2022-08-19T02:42:55;8.48;;;4.60;;
47599;SDS011;33323;52.124;6.018;2022-08-19T02:45:23;8.02;;;5.95;;
47599;SDS011;33323;52.124;6.018;2022-08-19T02:47:50;13.70;;;5.82;;
47599;SDS011;33323;52.124;6.018;2022-08-19T02:50:17;9.23;;;5.65;;
47599;SDS011;33323;52.124;6.018;2022-08-19T02:52:44;5.78;;;4.80;;
47599;SDS011;33323;52.124;6.018;2022-08-19T02:55:11;5.25;;;4.55;;
47599;SDS011;33323;52.124;6.018;2022-08-19T02:57:38;6.03;;;4.20;;
47599;SDS011;33323;52.124;6.018;2022-08-19T03:00:06;7.57;;;5.03;;
47599;SDS011;33323;52.124;6.018;2022-08-19T03:02:38;7.50;;;5.18;;
47599;SDS011;33323;52.124;6.018;2022-08-19T03:05:06;9.05;;;5.63;;
47599;SDS011;33323;52.124;6.018;2022-08-19T03:07:36;10.35;;;6.53;;
47599;SDS011;33323;52.124;6.018;2022-08-19T03:10:03;8.13;;;6.30;;
47599;SDS011;33323;52.124;6.018;2022-08-19T03:12:34;10.60;;;6.50;;
47599;SDS011;33323;52.124;6.018;2022-08-19T03:15:07;11.30;;;5.30;;
47599;SDS011;33323;52.124;6.018;2022-08-19T03:17:35;6.13;;;4.50;;
47599;SDS011;33323;52.124;6.018;2022-08-19T03:20:02;4.88;;;4.30;;
47599;SDS011;33323;52.124;6.018;2022-08-19T03:22:30;7.28;;;4.05;;
47599;SDS011;33323;52.124;6.018;2022-08-19T03:24:57;4.47;;;3.60;;
47599;SDS011;33323;52.124;6.018;2022-08-19T03:27:25;7.18;;;4.97;;
47599;SDS011;33323;52.124;6.018;2022-08-19T03:29:59;8.82;;;4.88;;
47599;SDS011;33323;52.124;6.018;2022-08-19T03:32:26;8.80;;;4.72;;
47599;SDS011;33323;52.124;6.018;2022-08-19T03:34:58;7.43;;;5.38;;
47599;SDS011;33323;52.124;6.018;2022-08-19T03:37:25;7.45;;;4.85;;
47599;SDS011;33323;52.124;6.018;2022-08-19T03:39:52;5.95;;;4.53;;
47599;SDS011;33323;52.124;6.018;2022-08-19T03:42:19;7.63;;;5.45;;
47599;SDS011;33323;52.124;6.018;2022-08-19T03:45:06;6.35;;;5.40;;
47599;SDS011;33323;52.124;6.018;2022-08-19T03:47:34;8.48;;;6.45;;
47599;SDS011;33323;52.124;6.018;2022-08-19T03:50:01;8.20;;;4.80;;
47599;SDS011;33323;52.124;6.018;2022-08-19T03:52:28;7.28;;;5.50;;
47599;SDS011;33323;52.124;6.018;2022-08-19T03:54:55;6.60;;;5.63;;
47599;SDS011;33323;52.124;6.018;2022-08-19T03:57:22;12.63;;;5.50;;
47599;SDS011;33323;52.124;6.018;2022-08-19T03:59:57;6.40;;;5.70;;
47599;SDS011;33323;52.124;6.018;2022-08-19T04:02:38;8.32;;;6.50;;
47599;SDS011;33323;52.124;6.018;2022-08-19T04:05:06;7.38;;;6.07;;
47599;SDS011;33323;52.124;6.018;2022-08-19T04:07:34;6.93;;;6.03;;
47599;SDS011;33323;52.124;6.018;2022-08-19T04:10:02;8.40;;;5.30;;
47599;SDS011;33323;52.124;6.018;2022-08-19T04:12:30;8.00;;;4.97;;
47599;SDS011;33323;52.124;6.018;2022-08-19T04:14:58;6.63;;;5.00;;
47599;SDS011;33323;52.124;6.018;2022-08-19T04:17:24;12.52;;;5.97;;
47599;SDS011;33323;52.124;6.018;2022-08-19T04:19:52;4.97;;;4.32;;
47599;SDS011;33323;52.124;6.018;2022-08-19T04:22:18;5.63;;;3.92;;
47599;SDS011;33323;52.124;6.018;2022-08-19T04:24:45;8.68;;;5.45;;
47599;SDS011;33323;52.124;6.018;2022-08-19T04:27:12;7.18;;;4.60;;
47599;SDS011;33323;52.124;6.018;2022-08-19T04:29:39;11.15;;;6.80;;
47599;SDS011;33323;52.124;6.018;2022-08-19T04:32:10;7.72;;;6.53;;
47599;SDS011;33323;52.124;6.018;2022-08-19T04:34:37;12.02;;;6.97;;
47599;SDS011;33323;52.124;6.018;2022-08-19T04:37:24;7.75;;;6.80;;
47599;SDS011;33323;52.124;6.018;2022-08-19T04:40:00;8.35;;;6.80;;
47599;SDS011;33323;52.124;6.018;2022-08-19T04:42:46;9.95;;;6.28;;
47599;SDS011;33323;52.124;6.018;2022-08-19T04:45:13;6.82;;;5.65;;
47599;SDS011;33323;52.124;6.018;2022-08-19T04:47:43;7.95;;;5.50;;
47599;SDS011;33323;52.124;6.018;2022-08-19T04:50:23;5.75;;;5.05;;
47599;SDS011;33323;52.124;6.018;2022-08-19T04:52:52;7.88;;;3.90;;
47599;SDS011;33323;52.124;6.018;2022-08-19T04:55:21;5.97;;;5.05;;
47599;SDS011;33323;52.124;6.018;2022-08-19T04:57:51;8.75;;;5.85;;
47599;SDS011;33323;52.124;6.018;2022-08-19T05:00:19;7.43;;;6.03;;
47599;SDS011;33323;52.124;6.018;2022-08-19T05:02:46;10.25;;;6.72;;
47599;SDS011;33323;52.124;6.018;2022-08-19T05:05:15;8.52;;;6.75;;
47599;SDS011;33323;52.124;6.018;2022-08-19T05:07:43;9.68;;;6.93;;
47599;SDS011;33323;52.124;6.018;2022-08-19T05:10:10;8.45;;;7.13;;
47599;SDS011;33323;52.124;6.018;2022-08-19T05:12:39;8.68;;;7.03;;
47599;SDS011;33323;52.124;6.018;2022-08-19T05:15:06;9.63;;;7.72;;
47599;SDS011;33323;52.124;6.018;2022-08-19T05:17:34;11.43;;;6.90;;
47599;SDS011;33323;52.124;6.018;2022-08-19T05:20:06;8.48;;;6.65;;
47599;SDS011;33323;52.124;6.018;2022-08-19T05:22:53;11.43;;;6.53;;
47599;SDS011;33323;52.124;6.018;2022-08-19T05:25:21;7.25;;;6.53;;
47599;SDS011;33323;52.124;6.018;2022-08-19T05:27:49;8.38;;;6.57;;
47599;SDS011;33323;52.124;6.018;2022-08-19T05:30:16;11.32;;;7.05;;
47599;SDS011;33323;52.124;6.018;2022-08-19T05:32:59;10.25;;;8.13;;
47599;SDS011;33323;52.124;6.018;2022-08-19T05:35:26;12.50;;;9.10;;
47599;SDS011;33323;52.124;6.018;2022-08-19T05:38:00;11.10;;;9.52;;
47599;SDS011;33323;52.124;6.018;2022-08-19T05:40:26;12.18;;;9.02;;
47599;SDS011;33323;52.124;6.018;2022-08-19T05:42:54;13.13;;;9.63;;
47599;SDS011;33323;52.124;6.018;2022-08-19T05:45:22;11.48;;;9.18;;
47599;SDS011;33323;52.124;6.018;2022-08-19T05:47:49;11.90;;;9.68;;
47599;SDS011;33323;52.124;6.018;2022-08-19T05:50:16;12.63;;;9.18;;
47599;SDS011;33323;52.124;6.018;2022-08-19T05:52:43;14.50;;;9.98;;
47599;SDS011;33323;52.124;6.018;2022-08-19T05:55:19;15.13;;;10.38;;
47599;SDS011;33323;52.124;6.018;2022-08-19T05:57:47;13.45;;;9.70;;
47599;SDS011;33323;52.124;6.018;2022-08-19T06:00:14;15.88;;;11.60;;
47599;SDS011;33323;52.124;6.018;2022-08-19T06:02:45;15.85;;;12.23;;
47599;SDS011;33323;52.124;6.018;2022-08-19T06:05:12;19.85;;;12.32;;
47599;SDS011;33323;52.124;6.018;2022-08-19T06:07:40;16.85;;;11.98;;
47599;SDS011;33323;52.124;6.018;2022-08-19T06:10:08;16.30;;;10.95;;
47599;SDS011;33323;52.124;6.018;2022-08-19T06:12:37;18.98;;;12.95;;
47599;SDS011;33323;52.124;6.018;2022-08-19T06:15:06;21.63;;;13.68;;
47599;SDS011;33323;52.124;6.018;2022-08-19T06:17:37;22.73;;;14.88;;
47599;SDS011;33323;52.124;6.018;2022-08-19T06:20:06;18.58;;;14.30;;
47599;SDS011;33323;52.124;6.018;2022-08-19T06:22:39;21.33;;;14.93;;
47599;SDS011;33323;52.124;6.018;2022-08-19T06:25:11;17.63;;;14.07;;
47599;SDS011;33323;52.124;6.018;2022-08-19T06:27:40;21.48;;;15.80;;
47599;SDS011;33323;52.124;6.018;2022-08-19T06:30:28;17.60;;;13.55;;
47599;SDS011;33323;52.124;6.018;2022-08-19T06:32:55;32.63;;;21.08;;
47599;SDS011;33323;52.124;6.018;2022-08-19T06:35:22;37.30;;;22.85;;
47599;SDS011;33323;52.124;6.018;2022-08-19T06:37:49;42.03;;;24.67;;
47599;SDS011;33323;52.124;6.018;2022-08-19T06:40:16;44.53;;;25.23;;
47599;SDS011;33323;52.124;6.018;2022-08-19T06:42:43;44.22;;;25.92;;
47599;SDS011;33323;52.124;6.018;2022-08-19T06:45:20;43.15;;;26.27;;
47599;SDS011;33323;52.124;6.018;2022-08-19T06:47:50;44.80;;;24.80;;
47599;SDS011;33323;52.124;6.018;2022-08-19T06:50:20;38.67;;;23.90;;
47599;SDS011;33323;52.124;6.018;2022-08-19T06:52:50;42.00;;;25.25;;
47599;SDS011;33323;52.124;6.018;2022-08-19T06:55:18;37.78;;;22.98;;
47599;SDS011;33323;52.124;6.018;2022-08-19T06:57:45;46.53;;;24.52;;
47599;SDS011;33323;52.124;6.018;2022-08-19T07:00:14;39.63;;;24.05;;
47599;SDS011;33323;52.124;6.018;2022-08-19T07:02:41;41.40;;;25.10;;
47599;SDS011;33323;52.124;6.018;2022-08-19T07:05:21;37.75;;;23.02;;
47599;SDS011;33323;52.124;6.018;2022-08-19T07:07:48;40.08;;;25.50;;
47599;SDS011;33323;52.124;6.018;2022-08-19T07:10:16;41.00;;;25.02;;
47599;SDS011;33323;52.124;6.018;2022-08-19T07:12:43;46.30;;;26.67;;
47599;SDS011;33323;52.124;6.018;2022-08-19T07:15:11;44.50;;;24.52;;
47599;SDS011;33323;52.124;6.018;2022-08-19T07:17:38;41.00;;;23.50;;
47599;SDS011;33323;52.124;6.018;2022-08-19T07:20:07;44.13;;;25.50;;
47599;SDS011;33323;52.124;6.018;2022-08-19T07:22:36;47.50;;;25.58;;
47599;SDS011;33323;52.124;6.018;2022-08-19T07:25:05;44.22;;;26.83;;
47599;SDS011;33323;52.124;6.018;2022-08-19T07:27:34;39.88;;;23.80;;
47599;SDS011;33323;52.124;6.018;2022-08-19T07:30:06;43.00;;;26.65;;
47599;SDS011;33323;52.124;6.018;2022-08-19T07:32:37;43.00;;;24.92;;
47599;SDS011;33323;52.124;6.018;2022-08-19T07:35:06;38.97;;;23.00;;
47599;SDS011;33323;52.124;6.018;2022-08-19T07:37:35;36.05;;;23.35;;
47599;SDS011;33323;52.124;6.018;2022-08-19T07:40:04;34.42;;;22.27;;
47599;SDS011;33323;52.124;6.018;2022-08-19T07:42:33;35.28;;;21.70;;
47599;SDS011;33323;52.124;6.018;2022-08-19T07:45:00;34.60;;;21.70;;
47599;SDS011;33323;52.124;6.018;2022-08-19T07:47:27;38.67;;;21.42;;
47599;SDS011;33323;52.124;6.018;2022-08-19T07:50:14;32.80;;;20.67;;
47599;SDS011;33323;52.124;6.018;2022-08-19T07:52:44;30.73;;;19.63;;
47599;SDS011;33323;52.124;6.018;2022-08-19T07:55:15;43.38;;;21.05;;
47599;SDS011;33323;52.124;6.018;2022-08-19T07:58:08;31.60;;;19.08;;
47599;SDS011;33323;52.124;6.018;2022-08-19T08:00:36;31.67;;;18.88;;
47599;SDS011;33323;52.124;6.018;2022-08-19T08:03:04;31.02;;;19.92;;
47599;SDS011;33323;52.124;6.018;2022-08-19T08:05:32;31.10;;;20.45;;
47599;SDS011;33323;52.124;6.018;2022-08-19T08:08:17;29.55;;;19.92;;
47599;SDS011;33323;52.124;6.018;2022-08-19T08:11:14;32.88;;;21.67;;
47599;SDS011;33323;52.124;6.018;2022-08-19T08:13:46;32.47;;;20.45;;
47599;SDS011;33323;52.124;6.018;2022-08-19T08:16:29;37.17;;;22.55;;
47599;SDS011;33323;52.124;6.018;2022-08-19T08:19:05;36.15;;;22.67;;
47599;SDS011;33323;52.124;6.018;2022-08-19T08:21:51;40.53;;;25.35;;
47599;SDS011;33323;52.124;6.018;2022-08-19T08:24:20;36.15;;;24.02;;
47599;SDS011;33323;52.124;6.018;2022-08-19T08:26:53;38.45;;;24.40;;
47599;SDS011;33323;52.124;6.018;2022-08-19T08:29:22;37.22;;;24.38;;
47599;SDS011;33323;52.124;6.018;2022-08-19T08:31:51;38.20;;;23.50;;
47599;SDS011;33323;52.124;6.018;2022-08-19T08:34:25;36.03;;;24.38;;
47599;SDS011;33323;52.124;6.018;2022-08-19T08:36:52;33.67;;;23.33;;
47599;SDS011;33323;52.124;6.018;2022-08-19T08:39:20;29.60;;;20.25;;
47599;SDS011;33323;52.124;6.018;2022-08-19T08:41:52;31.13;;;18.63;;
47599;SDS011;33323;52.124;6.018;2022-08-19T08:45:00;29.77;;;20.70;;
47599;SDS011;33323;52.124;6.018;2022-08-19T08:47:44;37.88;;;23.52;;
47599;SDS011;33323;52.124;6.018;2022-08-19T08:50:18;32.28;;;21.70;;
47599;SDS011;33323;52.124;6.018;2022-08-19T08:53:07;34.25;;;22.00;;
47599;SDS011;33323;52.124;6.018;2022-08-19T08:55:37;34.53;;;21.05;;
47599;SDS011;33323;52.124;6.018;2022-08-19T08:58:20;34.50;;;22.15;;
47599;SDS011;33323;52.124;6.018;2022-08-19T09:00:56;31.10;;;21.90;;
47599;SDS011;33323;52.124;6.018;2022-08-19T09:03:27;34.45;;;21.38;;
47599;SDS011;33323;52.124;6.018;2022-08-19T09:06:01;31.42;;;19.80;;
47599;SDS011;33323;52.124;6.018;2022-08-19T09:09:05;28.17;;;18.00;;
47599;SDS011;33323;52.124;6.018;2022-08-19T09:14:48;27.75;;;20.17;;
47599;SDS011;33323;52.124;6.018;2022-08-19T09:17:24;27.83;;;19.45;;
47599;SDS011;33323;52.124;6.018;2022-08-19T09:20:02;26.20;;;18.58;;
47599;SDS011;33323;52.124;6.018;2022-08-19T09:22:40;23.58;;;16.13;;
47599;SDS011;33323;52.124;6.018;2022-08-19T09:25:12;26.85;;;16.15;;
47599;SDS011;33323;52.124;6.018;2022-08-19T09:27:50;27.80;;;18.98;;
47599;SDS011;33323;52.124;6.018;2022-08-19T09:30:21;24.30;;;17.65;;
47599;SDS011;33323;52.124;6.018;2022-08-19T09:32:56;28.23;;;19.73;;
47599;SDS011;33323;52.124;6.018;2022-08-19T09:35:24;22.50;;;15.73;;
47599;SDS011;33323;52.124;6.018;2022-08-19T09:37:55;18.42;;;13.80;;
47599;SDS011;33323;52.124;6.018;2022-08-19T09:40:25;15.02;;;10.95;;
47599;SDS011;33323;52.124;6.018;2022-08-19T09:42:56;15.75;;;11.48;;
47599;SDS011;33323;52.124;6.018;2022-08-19T09:45:35;14.75;;;10.43;;
47599;SDS011;33323;52.124;6.018;2022-08-19T09:48:02;14.77;;;11.02;;
47599;SDS011;33323;52.124;6.018;2022-08-19T09:50:29;15.43;;;11.38;;
47599;SDS011;33323;52.124;6.018;2022-08-19T09:53:01;19.17;;;13.43;;
47599;SDS011;33323;52.124;6.018;2022-08-19T09:55:32;17.58;;;12.85;;
47599;SDS011;33323;52.124;6.018;2022-08-19T09:57:59;17.63;;;12.48;;
47599;SDS011;33323;52.124;6.018;2022-08-19T10:00:27;18.67;;;13.50;;
47599;SDS011;33323;52.124;6.018;2022-08-19T10:02:54;16.83;;;12.43;;
47599;SDS011;33323;52.124;6.018;2022-08-19T10:05:21;18.42;;;13.07;;
47599;SDS011;33323;52.124;6.018;2022-08-19T10:08:09;23.70;;;13.77;;
47599;SDS011;33323;52.124;6.018;2022-08-19T10:10:39;17.08;;;12.18;;
47599;SDS011;33323;52.124;6.018;2022-08-19T10:13:12;20.02;;;13.10;;
47599;SDS011;33323;52.124;6.018;2022-08-19T10:15:42;22.40;;;14.52;;
47599;SDS011;33323;52.124;6.018;2022-08-19T10:18:13;20.95;;;14.23;;
47599;SDS011;33323;52.124;6.018;2022-08-19T10:20:45;24.50;;;15.27;;
47599;SDS011;33323;52.124;6.018;2022-08-19T10:23:18;22.77;;;15.70;;
47599;SDS011;33323;52.124;6.018;2022-08-19T10:25:47;26.90;;;16.65;;
47599;SDS011;33323;52.124;6.018;2022-08-19T10:28:15;23.13;;;15.70;;
47599;SDS011;33323;52.124;6.018;2022-08-19T10:30:44;25.80;;;16.80;;
47599;SDS011;33323;52.124;6.018;2022-08-19T10:33:13;25.33;;;16.65;;
47599;SDS011;33323;52.124;6.018;2022-08-19T10:36:02;30.23;;;17.88;;
47599;SDS011;33323;52.124;6.018;2022-08-19T10:38:36;25.05;;;15.55;;
47599;SDS011;33323;52.124;6.018;2022-08-19T10:41:11;23.50;;;15.82;;
47599;SDS011;33323;52.124;6.018;2022-08-19T10:43:44;24.08;;;14.77;;
47599;SDS011;33323;52.124;6.018;2022-08-19T10:46:14;21.40;;;13.15;;
47599;SDS011;33323;52.124;6.018;2022-08-19T10:48:42;14.90;;;10.25;;
47599;SDS011;33323;52.124;6.018;2022-08-19T10:51:11;17.27;;;11.88;;
47599;SDS011;33323;52.124;6.018;2022-08-19T10:53:57;19.30;;;12.05;;
47599;SDS011;33323;52.124;6.018;2022-08-19T10:56:25;14.90;;;11.35;;
47599;SDS011;33323;52.124;6.018;2022-08-19T10:59:12;19.35;;;11.20;;
47599;SDS011;33323;52.124;6.018;2022-08-19T11:01:41;18.83;;;11.02;;
47599;SDS011;33323;52.124;6.018;2022-08-19T11:04:10;15.30;;;9.60;;
47599;SDS011;33323;52.124;6.018;2022-08-19T11:06:40;13.32;;;8.57;;
47599;SDS011;33323;52.124;6.018;2022-08-19T11:09:09;16.67;;;11.25;;
47599;SDS011;33323;52.124;6.018;2022-08-19T11:11:37;15.02;;;10.10;;
47599;SDS011;33323;52.124;6.018;2022-08-19T11:14:10;15.10;;;9.07;;
47599;SDS011;33323;52.124;6.018;2022-08-19T11:16:42;13.15;;;8.32;;
47599;SDS011;33323;52.124;6.018;2022-08-19T11:19:09;12.27;;;9.60;;
47599;SDS011;33323;52.124;6.018;2022-08-19T11:21:39;17.73;;;9.75;;
47599;SDS011;33323;52.124;6.018;2022-08-19T11:24:10;13.82;;;9.50;;
47599;SDS011;33323;52.124;6.018;2022-08-19T11:26:43;12.82;;;7.90;;
47599;SDS011;33323;52.124;6.018;2022-08-19T11:29:11;14.65;;;8.35;;
47599;SDS011;33323;52.124;6.018;2022-08-19T11:31:43;19.55;;;9.10;;
47599;SDS011;33323;52.124;6.018;2022-08-19T11:34:14;16.00;;;10.40;;
47599;SDS011;33323;52.124;6.018;2022-08-19T11:36:47;16.80;;;10.25;;
47599;SDS011;33323;52.124;6.018;2022-08-19T11:39:18;12.32;;;7.97;;
47599;SDS011;33323;52.124;6.018;2022-08-19T11:41:47;12.77;;;8.65;;
47599;SDS011;33323;52.124;6.018;2022-08-19T11:44:14;15.18;;;10.05;;
47599;SDS011;33323;52.124;6.018;2022-08-19T11:46:41;15.70;;;7.60;;
47599;SDS011;33323;52.124;6.018;2022-08-19T11:49:14;13.35;;;7.40;;
47599;SDS011;33323;52.124;6.018;2022-08-19T11:51:45;9.98;;;6.70;;
47599;SDS011;33323;52.124;6.018;2022-08-19T11:54:13;12.88;;;7.72;;
47599;SDS011;33323;52.124;6.018;2022-08-19T11:56:42;9.70;;;7.72;;
47599;SDS011;33323;52.124;6.018;2022-08-19T11:59:10;10.35;;;6.68;;
47599;SDS011;33323;52.124;6.018;2022-08-19T12:01:40;12.52;;;8.65;;
47599;SDS011;33323;52.124;6.018;2022-08-19T12:04:09;12.68;;;8.40;;
47599;SDS011;33323;52.124;6.018;2022-08-19T12:06:38;19.23;;;11.20;;
47599;SDS011;33323;52.124;6.018;2022-08-19T12:09:07;13.07;;;8.85;;
47599;SDS011;33323;52.124;6.018;2022-08-19T12:11:36;11.90;;;7.47;;
47599;SDS011;33323;52.124;6.018;2022-08-19T12:14:04;10.05;;;6.70;;
47599;SDS011;33323;52.124;6.018;2022-08-19T12:16:32;10.52;;;7.25;;
47599;SDS011;33323;52.124;6.018;2022-08-19T12:19:03;13.95;;;8.77;;
47599;SDS011;33323;52.124;6.018;2022-08-19T12:21:31;9.02;;;7.40;;
47599;SDS011;33323;52.124;6.018;2022-08-19T12:24:01;13.27;;;9.48;;
47599;SDS011;33323;52.124;6.018;2022-08-19T12:26:32;12.90;;;8.00;;
47599;SDS011;33323;52.124;6.018;2022-08-19T12:29:18;9.13;;;7.28;;
47599;SDS011;33323;52.124;6.018;2022-08-19T12:31:49;11.23;;;8.18;;
47599;SDS011;33323;52.124;6.018;2022-08-19T12:34:17;11.20;;;7.47;;
47599;SDS011;33323;52.124;6.018;2022-08-19T12:36:46;13.90;;;7.53;;
47599;SDS011;33323;52.124;6.018;2022-08-19T12:39:15;12.93;;;8.00;;
47599;SDS011;33323;52.124;6.018;2022-08-19T12:41:42;16.23;;;8.77;;
47599;SDS011;33323;52.124;6.018;2022-08-19T12:44:20;10.77;;;7.10;;
47599;SDS011;33323;52.124;6.018;2022-08-19T12:46:57;15.88;;;8.35;;
47599;SDS011;33323;52.124;6.018;2022-08-19T12:49:27;13.23;;;7.35;;
47599;SDS011;33323;52.124;6.018;2022-08-19T12:52:15;10.75;;;6.53;;
47599;SDS011;33323;52.124;6.018;2022-08-19T12:54:48;12.88;;;7.43;;
47599;SDS011;33323;52.124;6.018;2022-08-19T12:57:20;10.68;;;7.18;;
47599;SDS011;33323;52.124;6.018;2022-08-19T12:59:57;10.80;;;6.88;;
47599;SDS011;33323;52.124;6.018;2022-08-19T13:02:31;14.07;;;6.83;;
47599;SDS011;33323;52.124;6.018;2022-08-19T13:05:04;19.00;;;6.97;;
47599;SDS011;33323;52.124;6.018;2022-08-19T13:07:34;10.80;;;7.05;;
47599;SDS011;33323;52.124;6.018;2022-08-19T13:10:04;11.55;;;7.63;;
47599;SDS011;33323;52.124;6.018;2022-08-19T13:12:33;9.02;;;6.32;;
47599;SDS011;33323;52.124;6.018;2022-08-19T13:15:01;17.83;;;6.38;;
47599;SDS011;33323;52.124;6.018;2022-08-19T13:17:28;10.57;;;6.50;;
47599;SDS011;33323;52.124;6.018;2022-08-19T13:19:54;14.57;;;9.52;;
47599;SDS011;33323;52.124;6.018;2022-08-19T13:22:21;11.00;;;7.03;;
47599;SDS011;33323;52.124;6.018;2022-08-19T13:24:50;10.57;;;7.15;;
47599;SDS011;33323;52.124;6.018;2022-08-19T13:27:17;11.73;;;7.82;;
47599;SDS011;33323;52.124;6.018;2022-08-19T13:29:43;10.77;;;7.47;;
47599;SDS011;33323;52.124;6.018;2022-08-19T13:32:29;10.88;;;7.38;;
47599;SDS011;33323;52.124;6.018;2022-08-19T13:35:15;10.10;;;8.95;;
47599;SDS011;33323;52.124;6.018;2022-08-19T13:37:43;11.50;;;7.60;;
47599;SDS011;33323;52.124;6.018;2022-08-19T13:40:16;11.48;;;8.40;;
47599;SDS011;33323;52.124;6.018;2022-08-19T13:42:47;12.48;;;8.73;;
47599;SDS011;33323;52.124;6.018;2022-08-19T13:45:16;12.38;;;8.98;;
47599;SDS011;33323;52.124;6.018;2022-08-19T13:47:47;9.98;;;7.95;;
47599;SDS011;33323;52.124;6.018;2022-08-19T13:50:19;15.57;;;10.82;;
47599;SDS011;33323;52.124;6.018;2022-08-19T13:52:52;14.43;;;8.65;;
47599;SDS011;33323;52.124;6.018;2022-08-19T13:55:20;13.00;;;9.13;;
47599;SDS011;33323;52.124;6.018;2022-08-19T13:57:54;14.63;;;10.00;;
47599;SDS011;33323;52.124;6.018;2022-08-19T14:00:23;15.55;;;8.88;;
47599;SDS011;33323;52.124;6.018;2022-08-19T14:02:53;15.55;;;10.48;;
47599;SDS011;33323;52.124;6.018;2022-08-19T14:05:23;15.10;;;9.88;;
47599;SDS011;33323;52.124;6.018;2022-08-19T14:07:52;12.55;;;8.50;;
47599;SDS011;33323;52.124;6.018;2022-08-19T14:10:20;11.45;;;9.05;;
47599;SDS011;33323;52.124;6.018;2022-08-19T14:12:51;17.05;;;9.30;;
47599;SDS011;33323;52.124;6.018;2022-08-19T14:15:25;11.63;;;8.48;;
47599;SDS011;33323;52.124;6.018;2022-08-19T14:17:53;12.15;;;8.88;;
47599;SDS011;33323;52.124;6.018;2022-08-19T14:20:20;14.70;;;9.70;;
47599;SDS011;33323;52.124;6.018;2022-08-19T14:22:51;13.93;;;9.20;;
47599;SDS011;33323;52.124;6.018;2022-08-19T14:25:22;16.23;;;8.55;;
47599;SDS011;33323;52.124;6.018;2022-08-19T14:27:53;15.95;;;10.10;;
47599;SDS011;33323;52.124;6.018;2022-08-19T14:30:22;16.70;;;10.43;;
47599;SDS011;33323;52.124;6.018;2022-08-19T14:32:57;22.70;;;12.65;;
47599;SDS011;33323;52.124;6.018;2022-08-19T14:35:29;19.10;;;14.15;;
47599;SDS011;33323;52.124;6.018;2022-08-19T14:38:02;21.75;;;14.70;;
47599;SDS011;33323;52.124;6.018;2022-08-19T14:40:31;31.98;;;17.83;;
47599;SDS011;33323;52.124;6.018;2022-08-19T14:43:00;24.98;;;17.95;;
47599;SDS011;33323;52.124;6.018;2022-08-19T14:45:31;34.13;;;18.50;;
47599;SDS011;33323;52.124;6.018;2022-08-19T14:48:03;28.05;;;20.23;;
47599;SDS011;33323;52.124;6.018;2022-08-19T14:50:31;28.67;;;21.55;;
47599;SDS011;33323;52.124;6.018;2022-08-19T14:53:01;32.72;;;22.45;;
47599;SDS011;33323;52.124;6.018;2022-08-19T14:55:40;34.38;;;21.73;;
47599;SDS011;33323;52.124;6.018;2022-08-19T14:58:09;36.40;;;23.60;;
47599;SDS011;33323;52.124;6.018;2022-08-19T15:00:55;31.67;;;21.60;;
47599;SDS011;33323;52.124;6.018;2022-08-19T15:03:25;30.65;;;21.60;;
47599;SDS011;33323;52.124;6.018;2022-08-19T15:05:52;27.27;;;20.73;;